sensor_id;sensor_type;location;lat;lon;timestamp;pressure;altitude;pressure_sealevel;temperature;humidity
3122;BME280;1571;52.524;14.104;2024-03-07T00:01:46;102137.16;;;4.70;100.00
3122;BME280;1571;52.524;14.104;2024-03-07T00:04:14;102141.56;;;4.71;100.00
3122;BME280;1571;52.524;14.104;2024-03-07T00:06:42;102139.78;;;4.70;100.00
3122;BME280;1571;52.524;14.104;2024-03-07T00:09:10;102149.63;;;4.59;100.00
3122;BME280;1571;52.524;14.104;2024-03-07T00:11:38;102149.66;;;4.56;100.00
3122;BME280;1571;52.524;14.104;2024-03-07T00:14:09;102150.66;;;4.47;100.00
3122;BME280;1571;52.524;14.104;2024-03-07T00:16:37;102156.78;;;4.51;100.00
3122;BME280;1571;52.524;14.104;2024-03-07T00:19:07;102163.97;;;4.36;100.00
3122;BME280;1571;52.524;14.104;2024-03-07T00:21:35;102159.53;;;4.42;100.00
3122;BME280;1571;52.524;14.104;2024-03-07T00:24:04;102176.25;;;4.36;100.00
3122;BME280;1571;52.524;14.104;2024-03-07T00:26:35;102172.75;;;4.35;100.00
3122;BME280;1571;52.524;14.104;2024-03-07T00:29:03;102178.00;;;4.35;100.00
3122;BME280;1571;52.524;14.104;2024-03-07T00:31:34;102172.63;;;4.43;100.00
3122;BME280;1571;52.524;14.104;2024-03-07T00:34:03;102176.09;;;4.47;100.00
3122;BME280;1571;52.524;14.104;2024-03-07T00:36:42;102173.34;;;4.57;100.00
3122;BME280;1571;52.524;14.104;2024-03-07T00:39:10;102177.69;;;4.57;100.00
3122;BME280;1571;52.524;14.104;2024-03-07T00:41:39;102178.47;;;4.65;100.00
3122;BME280;1571;52.524;14.104;2024-03-07T00:44:08;102171.41;;;4.67;100.00
3122;BME280;1571;52.524;14.104;2024-03-07T00:46:38;102182.03;;;4.61;100.00
3122;BME280;1571;52.524;14.104;2024-03-07T00:49:06;102174.84;;;4.74;100.00
3122;BME280;1571;52.524;14.104;2024-03-07T00:51:35;102176.75;;;4.64;100.00
3122;BME280;1571;52.524;14.104;2024-03-07T00:54:06;102168.78;;;4.69;100.00
3122;BME280;1571;52.524;14.104;2024-03-07T00:56:34;102174.19;;;4.58;100.00
3122;BME280;1571;52.524;14.104;2024-03-07T00:59:03;102173.22;;;4.64;100.00
3122;BME280;1571;52.524;14.104;2024-03-07T01:01:32;102174.97;;;4.66;100.00
3122;BME280;1571;52.524;14.104;2024-03-07T01:04:06;102173.41;;;4.50;100.00
3122;BME280;1571;52.524;14.104;2024-03-07T01:06:34;102169.88;;;4.52;100.00
3122;BME280;1571;52.524;14.104;2024-03-07T01:09:04;102175.91;;;4.59;100.00
3122;BME280;1571;52.524;14.104;2024-03-07T01:11:42;102176.03;;;4.53;100.00
3122;BME280;1571;52.524;14.104;2024-03-07T01:14:11;102167.31;;;4.48;100.00
3122;BME280;1571;52.524;14.104;2024-03-07T01:16:40;102172.50;;;4.54;100.00
3122;BME280;1571;52.524;14.104;2024-03-07T01:19:10;102167.88;;;4.68;100.00
3122;BME280;1571;52.524;14.104;2024-03-07T01:21:38;102161.03;;;4.59;100.00
3122;BME280;1571;52.524;14.104;2024-03-07T01:24:07;102165.41;;;4.59;100.00
3122;BME280;1571;52.524;14.104;2024-03-07T01:26:36;102158.53;;;4.49;100.00
3122;BME280;1571;52.524;14.104;2024-03-07T01:29:04;102149.03;;;4.40;100.00
3122;BME280;1571;52.524;14.104;2024-03-07T01:31:34;102145.59;;;4.35;100.00
3122;BME280;1571;52.524;14.104;2024-03-07T01:34:02;102145.69;;;4.27;100.00
3122;BME280;1571;52.524;14.104;2024-03-07T01:36:32;102147.56;;;4.19;100.00
3122;BME280;1571;52.524;14.104;2024-03-07T01:39:01;102145.69;;;4.27;100.00
3122;BME280;1571;52.524;14.104;2024-03-07T01:41:31;102143.19;;;4.20;100.00
3122;BME280;1571;52.524;14.104;2024-03-07T01:44:01;102151.16;;;4.12;100.00
3122;BME280;1571;52.524;14.104;2024-03-07T01:46:30;102152.22;;;3.97;100.00
3122;BME280;1571;52.524;14.104;2024-03-07T01:48:58;102150.59;;;3.88;100.00
3122;BME280;1571;52.524;14.104;2024-03-07T01:51:26;102148.88;;;3.84;100.00
3122;BME280;1571;52.524;14.104;2024-03-07T01:53:56;102135.84;;;3.73;100.00
3122;BME280;1571;52.524;14.104;2024-03-07T01:56:25;102153.50;;;3.62;100.00
3122;BME280;1571;52.524;14.104;2024-03-07T01:58:53;102149.28;;;3.47;100.00
3122;BME280;1571;52.524;14.104;2024-03-07T02:01:23;102152.78;;;3.46;100.00
3122;BME280;1571;52.524;14.104;2024-03-07T02:03:51;102159.03;;;3.34;100.00
3122;BME280;1571;52.524;14.104;2024-03-07T02:06:19;102157.88;;;3.62;100.00
3122;BME280;1571;52.524;14.104;2024-03-07T02:08:47;102150.06;;;3.57;100.00
3122;BME280;1571;52.524;14.104;2024-03-07T02:11:17;102146.63;;;3.49;100.00
3122;BME280;1571;52.524;14.104;2024-03-07T02:13:46;102139.50;;;3.63;100.00
3122;BME280;1571;52.524;14.104;2024-03-07T02:16:15;102149.72;;;3.01;100.00
3122;BME280;1571;52.524;14.104;2024-03-07T02:18:44;102143.69;;;2.93;100.00
3122;BME280;1571;52.524;14.104;2024-03-07T02:21:14;102141.19;;;2.76;100.00
3122;BME280;1571;52.524;14.104;2024-03-07T02:23:42;102145.59;;;2.73;100.00
3122;BME280;1571;52.524;14.104;2024-03-07T02:26:10;102149.88;;;2.83;100.00
3122;BME280;1571;52.524;14.104;2024-03-07T02:28:39;102156.09;;;2.73;100.00
3122;BME280;1571;52.524;14.104;2024-03-07T02:31:07;102146.50;;;2.65;100.00
3122;BME280;1571;52.524;14.104;2024-03-07T02:33:36;102150.94;;;2.57;100.00
3122;BME280;1571;52.524;14.104;2024-03-07T02:36:06;102145.03;;;2.21;100.00
3122;BME280;1571;52.524;14.104;2024-03-07T02:38:35;102148.44;;;2.37;100.00
3122;BME280;1571;52.524;14.104;2024-03-07T02:41:04;102151.25;;;2.03;100.00
3122;BME280;1571;52.524;14.104;2024-03-07T02:43:33;102152.22;;;1.76;100.00
3122;BME280;1571;52.524;14.104;2024-03-07T02:46:05;102154.88;;;1.59;100.00
3122;BME280;1571;52.524;14.104;2024-03-07T02:48:33;102159.22;;;1.68;100.00
3122;BME280;1571;52.524;14.104;2024-03-07T02:51:02;102154.84;;;1.76;100.00
3122;BME280;1571;52.524;14.104;2024-03-07T02:53:33;102155.69;;;1.81;100.00
3122;BME280;1571;52.524;14.104;2024-03-07T02:56:03;102160.06;;;1.76;100.00
3122;BME280;1571;52.524;14.104;2024-03-07T02:58:35;102160.94;;;1.72;100.00
3122;BME280;1571;52.524;14.104;2024-03-07T03:01:03;102160.09;;;1.59;100.00
3122;BME280;1571;52.524;14.104;2024-03-07T03:03:32;102163.59;;;1.67;100.00
3122;BME280;1571;52.524;14.104;2024-03-07T03:06:01;102163.56;;;1.66;100.00
3122;BME280;1571;52.524;14.104;2024-03-07T03:08:29;102159.22;;;1.62;100.00
3122;BME280;1571;52.524;14.104;2024-03-07T03:10:57;102160.97;;;1.60;100.00
3122;BME280;1571;52.524;14.104;2024-03-07T03:13:27;102157.50;;;1.58;100.00
3122;BME280;1571;52.524;14.104;2024-03-07T03:15:56;102167.94;;;1.64;100.00
3122;BME280;1571;52.524;14.104;2024-03-07T03:18:24;102160.94;;;1.71;100.00
3122;BME280;1571;52.524;14.104;2024-03-07T03:20:53;102157.50;;;1.50;100.00
3122;BME280;1571;52.524;14.104;2024-03-07T03:23:21;102152.28;;;1.52;100.00
3122;BME280;1571;52.524;14.104;2024-03-07T03:25:49;102155.81;;;1.35;100.00
3122;BME280;1571;52.524;14.104;2024-03-07T03:28:18;102154.03;;;1.37;100.00
3122;BME280;1571;52.524;14.104;2024-03-07T03:30:50;102154.94;;;1.30;100.00
3122;BME280;1571;52.524;14.104;2024-03-07T03:33:19;102149.72;;;1.15;100.00
3122;BME280;1571;52.524;14.104;2024-03-07T03:35:50;102151.44;;;1.19;100.00
3122;BME280;1571;52.524;14.104;2024-03-07T03:38:18;102161.94;;;1.13;100.00
3122;BME280;1571;52.524;14.104;2024-03-07T03:40:47;102154.97;;;1.04;100.00
3122;BME280;1571;52.524;14.104;2024-03-07T03:43:15;102158.44;;;0.88;100.00
3122;BME280;1571;52.524;14.104;2024-03-07T03:45:43;102156.72;;;0.83;100.00
3122;BME280;1571;52.524;14.104;2024-03-07T03:48:13;102154.97;;;0.89;100.00
3122;BME280;1571;52.524;14.104;2024-03-07T03:50:42;102151.47;;;0.88;100.00
3122;BME280;1571;52.524;14.104;2024-03-07T03:53:10;102150.59;;;0.83;100.00
3122;BME280;1571;52.524;14.104;2024-03-07T03:55:39;102148.88;;;0.79;100.00
3122;BME280;1571;52.524;14.104;2024-03-07T03:58:07;102153.19;;;0.88;100.00
3122;BME280;1571;52.524;14.104;2024-03-07T04:00:36;102149.72;;;0.73;100.00
3122;BME280;1571;52.524;14.104;2024-03-07T04:03:06;102159.31;;;0.73;100.00
3122;BME280;1571;52.524;14.104;2024-03-07T04:05:36;102153.22;;;0.71;100.00
3122;BME280;1571;52.524;14.104;2024-03-07T04:08:05;102154.97;;;0.70;100.00
3122;BME280;1571;52.524;14.104;2024-03-07T04:10:34;102154.03;;;0.56;100.00
3122;BME280;1571;52.524;14.104;2024-03-07T04:13:03;102160.13;;;0.52;100.00
3122;BME280;1571;52.524;14.104;2024-03-07T04:15:31;102166.28;;;0.61;100.00
3122;BME280;1571;52.524;14.104;2024-03-07T04:18:03;102153.19;;;0.52;100.00
3122;BME280;1571;52.524;14.104;2024-03-07T04:20:32;102154.00;;;0.36;100.00
3122;BME280;1571;52.524;14.104;2024-03-07T04:23:02;102160.97;;;0.28;100.00
3122;BME280;1571;52.524;14.104;2024-03-07T04:25:30;102167.94;;;0.38;100.00
3122;BME280;1571;52.524;14.104;2024-03-07T04:28:00;102167.94;;;0.23;100.00
3122;BME280;1571;52.524;14.104;2024-03-07T04:30:30;102170.59;;;0.41;100.00
3122;BME280;1571;52.524;14.104;2024-03-07T04:32:58;102159.25;;;0.39;100.00
3122;BME280;1571;52.524;14.104;2024-03-07T04:35:26;102167.06;;;0.30;100.00
3122;BME280;1571;52.524;14.104;2024-03-07T04:37:55;102162.69;;;0.29;100.00
3122;BME280;1571;52.524;14.104;2024-03-07T04:40:24;102168.81;;;0.31;100.00
3122;BME280;1571;52.524;14.104;2024-03-07T04:42:52;102176.63;;;0.28;100.00
3122;BME280;1571;52.524;14.104;2024-03-07T04:45:20;102172.28;;;0.30;100.00
3122;BME280;1571;52.524;14.104;2024-03-07T04:47:49;102173.16;;;0.26;100.00
3122;BME280;1571;52.524;14.104;2024-03-07T04:50:17;102178.34;;;0.19;100.00
3122;BME280;1571;52.524;14.104;2024-03-07T04:52:47;102176.59;;;0.12;100.00
3122;BME280;1571;52.524;14.104;2024-03-07T04:55:17;102173.09;;;0.07;100.00
3122;BME280;1571;52.524;14.104;2024-03-07T04:57:47;102179.13;;;-0.03;100.00
3122;BME280;1571;52.524;14.104;2024-03-07T05:00:15;102174.75;;;-0.10;100.00
3122;BME280;1571;52.524;14.104;2024-03-07T05:02:48;102178.25;;;-0.07;100.00
3122;BME280;1571;52.524;14.104;2024-03-07T05:05:18;102171.25;;;-0.14;100.00
3122;BME280;1571;52.524;14.104;2024-03-07T05:07:50;102181.66;;;-0.22;100.00
3122;BME280;1571;52.524;14.104;2024-03-07T05:10:19;102179.06;;;-0.14;100.00
3122;BME280;1571;52.524;14.104;2024-03-07T05:12:49;102183.41;;;-0.19;100.00
3122;BME280;1571;52.524;14.104;2024-03-07T05:15:18;102185.19;;;-0.13;100.00
3122;BME280;1571;52.524;14.104;2024-03-07T05:17:46;102188.59;;;-0.24;100.00
3122;BME280;1571;52.524;14.104;2024-03-07T05:20:14;102193.00;;;-0.18;100.00
3122;BME280;1571;52.524;14.104;2024-03-07T05:22:43;102197.22;;;-0.37;100.00
3122;BME280;1571;52.524;14.104;2024-03-07T05:25:18;102193.78;;;-0.30;100.00
3122;BME280;1571;52.524;14.104;2024-03-07T05:27:46;102198.06;;;-0.41;100.00
3122;BME280;1571;52.524;14.104;2024-03-07T05:30:18;102195.50;;;-0.33;100.00
3122;BME280;1571;52.524;14.104;2024-03-07T05:32:49;102199.00;;;-0.33;100.00
3122;BME280;1571;52.524;14.104;2024-03-07T05:35:17;102190.31;;;-0.29;100.00
3122;BME280;1571;52.524;14.104;2024-03-07T05:37:48;102203.25;;;-0.46;100.00
3122;BME280;1571;52.524;14.104;2024-03-07T05:40:18;102198.13;;;-0.30;100.00
3122;BME280;1571;52.524;14.104;2024-03-07T05:42:47;102209.41;;;-0.37;100.00
3122;BME280;1571;52.524;14.104;2024-03-07T05:45:15;102200.75;;;-0.29;100.00
3122;BME280;1571;52.524;14.104;2024-03-07T05:47:46;102209.44;;;-0.36;100.00
3122;BME280;1571;52.524;14.104;2024-03-07T05:50:16;102211.09;;;-0.41;100.00
3122;BME280;1571;52.524;14.104;2024-03-07T05:52:45;102209.34;;;-0.45;100.00
3122;BME280;1571;52.524;14.104;2024-03-07T05:55:15;102217.06;;;-0.62;100.00
3122;BME280;1571;52.524;14.104;2024-03-07T05:57:46;102210.16;;;-0.52;100.00
3122;BME280;1571;52.524;14.104;2024-03-07T06:00:15;102209.31;;;-0.48;100.00
3122;BME280;1571;52.524;14.104;2024-03-07T06:02:56;102210.28;;;-0.34;100.00
3122;BME280;1571;52.524;14.104;2024-03-07T06:05:25;102210.22;;;-0.43;100.00
3122;BME280;1571;52.524;14.104;2024-03-07T06:07:54;102209.47;;;-0.27;100.00
3122;BME280;1571;52.524;14.104;2024-03-07T06:10:23;102209.44;;;-0.36;100.00
3122;BME280;1571;52.524;14.104;2024-03-07T06:12:52;102213.75;;;-0.36;100.00
3122;BME280;1571;52.524;14.104;2024-03-07T06:15:24;102214.63;;;-0.37;100.00
3122;BME280;1571;52.524;14.104;2024-03-07T06:17:52;102215.53;;;-0.28;100.00
3122;BME280;1571;52.524;14.104;2024-03-07T06:20:22;102224.25;;;-0.29;100.00
3122;BME280;1571;52.524;14.104;2024-03-07T06:22:51;102226.06;;;-0.17;100.00
3122;BME280;1571;52.524;14.104;2024-03-07T06:25:20;102217.34;;;-0.22;100.00
3122;BME280;1571;52.524;14.104;2024-03-07T06:28:01;102224.34;;;-0.07;100.00
3122;BME280;1571;52.524;14.104;2024-03-07T06:30:36;102224.44;;;0.05;100.00
3122;BME280;1571;52.524;14.104;2024-03-07T06:33:04;102222.66;;;-0.04;100.00
3122;BME280;1571;52.524;14.104;2024-03-07T06:35:34;102224.44;;;0.05;100.00
3122;BME280;1571;52.524;14.104;2024-03-07T06:38:04;102223.59;;;0.09;100.00
3122;BME280;1571;52.524;14.104;2024-03-07T06:40:32;102218.38;;;0.12;100.00
3122;BME280;1571;52.524;14.104;2024-03-07T06:43:01;102218.38;;;0.15;100.00
3122;BME280;1571;52.524;14.104;2024-03-07T06:45:30;102221.88;;;0.14;100.00
3122;BME280;1571;52.524;14.104;2024-03-07T06:47:59;102218.41;;;0.18;100.00
3122;BME280;1571;52.524;14.104;2024-03-07T06:50:27;102229.78;;;0.34;100.00
3122;BME280;1571;52.524;14.104;2024-03-07T06:53:06;102216.72;;;0.40;100.00
3122;BME280;1571;52.524;14.104;2024-03-07T06:55:35;102221.97;;;0.42;100.00
3122;BME280;1571;52.524;14.104;2024-03-07T06:58:04;102215.00;;;0.47;100.00
3122;BME280;1571;52.524;14.104;2024-03-07T07:00:33;102213.28;;;0.52;100.00
3122;BME280;1571;52.524;14.104;2024-03-07T07:03:05;102223.75;;;0.55;100.00
3122;BME280;1571;52.524;14.104;2024-03-07T07:05:34;102212.41;;;0.58;100.00
3122;BME280;1571;52.524;14.104;2024-03-07T07:08:04;102210.69;;;0.63;100.00
3122;BME280;1571;52.524;14.104;2024-03-07T07:10:36;102212.44;;;0.67;100.00
3122;BME280;1571;52.524;14.104;2024-03-07T07:13:04;102212.47;;;0.73;100.00
3122;BME280;1571;52.524;14.104;2024-03-07T07:15:33;102206.41;;;0.88;100.00
3122;BME280;1571;52.524;14.104;2024-03-07T07:18:01;102215.09;;;0.89;100.00
3122;BME280;1571;52.524;14.104;2024-03-07T07:20:30;102201.16;;;0.94;100.00
3122;BME280;1571;52.524;14.104;2024-03-07T07:23:01;102202.00;;;0.82;100.00
3122;BME280;1571;52.524;14.104;2024-03-07T07:25:31;102202.91;;;0.95;100.00
3122;BME280;1571;52.524;14.104;2024-03-07T07:28:01;102202.03;;;1.10;100.00
3122;BME280;1571;52.524;14.104;2024-03-07T07:30:32;102203.78;;;0.97;100.00
3122;BME280;1571;52.524;14.104;2024-03-07T07:33:00;102195.03;;;0.92;100.00
3122;BME280;1571;52.524;14.104;2024-03-07T07:35:29;102196.81;;;1.22;100.00
3122;BME280;1571;52.524;14.104;2024-03-07T07:37:58;102195.06;;;1.28;100.00
3122;BME280;1571;52.524;14.104;2024-03-07T07:40:26;102190.69;;;1.40;100.00
3122;BME280;1571;52.524;14.104;2024-03-07T07:42:55;102196.78;;;1.47;100.00
3122;BME280;1571;52.524;14.104;2024-03-07T07:45:25;102186.31;;;1.36;100.00
3122;BME280;1571;52.524;14.104;2024-03-07T07:47:53;102193.28;;;1.48;100.00
3122;BME280;1571;52.524;14.104;2024-03-07T07:50:23;102199.41;;;1.45;100.00
3122;BME280;1571;52.524;14.104;2024-03-07T07:52:53;102193.25;;;1.62;100.00
3122;BME280;1571;52.524;14.104;2024-03-07T07:55:23;102190.66;;;1.56;100.00
3122;BME280;1571;52.524;14.104;2024-03-07T07:57:53;102192.28;;;1.97;100.00
3122;BME280;1571;52.524;14.104;2024-03-07T08:00:23;102186.25;;;1.82;100.00
3122;BME280;1571;52.524;14.104;2024-03-07T08:02:54;102191.31;;;2.24;100.00
3122;BME280;1571;52.524;14.104;2024-03-07T08:05:23;102187.78;;;2.31;100.00
3122;BME280;1571;52.524;14.104;2024-03-07T08:07:53;102191.97;;;2.64;100.00
3122;BME280;1571;52.524;14.104;2024-03-07T08:10:24;102189.31;;;2.67;100.00
3122;BME280;1571;52.524;14.104;2024-03-07T08:12:53;102185.94;;;2.48;100.00
3122;BME280;1571;52.524;14.104;2024-03-07T08:15:21;102194.72;;;2.40;99.65
3122;BME280;1571;52.524;14.104;2024-03-07T08:17:50;102188.56;;;2.47;99.93
3122;BME280;1571;52.524;14.104;2024-03-07T08:20:21;102194.59;;;2.66;99.50
3122;BME280;1571;52.524;14.104;2024-03-07T08:22:51;102195.66;;;2.33;98.25
3122;BME280;1571;52.524;14.104;2024-03-07T08:25:21;102195.59;;;2.40;98.71
3122;BME280;1571;52.524;14.104;2024-03-07T08:27:52;102200.81;;;2.48;98.98
3122;BME280;1571;52.524;14.104;2024-03-07T08:30:21;102194.44;;;2.89;98.28
3122;BME280;1571;52.524;14.104;2024-03-07T08:32:51;102196.25;;;2.75;97.66
3122;BME280;1571;52.524;14.104;2024-03-07T08:35:22;102200.50;;;2.94;97.09
3122;BME280;1571;52.524;14.104;2024-03-07T08:37:52;102205.78;;;2.88;96.51
3122;BME280;1571;52.524;14.104;2024-03-07T08:40:23;102191.84;;;2.83;96.03
3122;BME280;1571;52.524;14.104;2024-03-07T08:42:55;102200.41;;;3.06;95.62
3122;BME280;1571;52.524;14.104;2024-03-07T08:45:25;102190.78;;;3.04;94.43
3122;BME280;1571;52.524;14.104;2024-03-07T08:47:55;102189.09;;;3.00;93.30
3122;BME280;1571;52.524;14.104;2024-03-07T08:50:27;102193.34;;;3.15;93.30
3122;BME280;1571;52.524;14.104;2024-03-07T08:52:57;102185.50;;;3.08;92.77
3122;BME280;1571;52.524;14.104;2024-03-07T08:55:25;102187.13;;;3.25;92.44
3122;BME280;1571;52.524;14.104;2024-03-07T08:57:54;102191.53;;;3.20;92.49
3122;BME280;1571;52.524;14.104;2024-03-07T09:00:23;102187.78;;;3.48;91.16
3122;BME280;1571;52.524;14.104;2024-03-07T09:02:55;102182.47;;;3.54;90.79
3122;BME280;1571;52.524;14.104;2024-03-07T09:05:28;102181.66;;;3.49;90.23
3122;BME280;1571;52.524;14.104;2024-03-07T09:07:58;102181.34;;;3.77;89.51
3122;BME280;1571;52.524;14.104;2024-03-07T09:10:26;102175.03;;;3.93;88.43
3122;BME280;1571;52.524;14.104;2024-03-07T09:12:58;102171.59;;;3.88;87.63
3122;BME280;1571;52.524;14.104;2024-03-07T09:15:26;102170.47;;;4.09;87.28
3122;BME280;1571;52.524;14.104;2024-03-07T09:17:55;102172.03;;;4.26;86.77
3122;BME280;1571;52.524;14.104;2024-03-07T09:20:26;102170.34;;;4.18;86.13
3122;BME280;1571;52.524;14.104;2024-03-07T09:22:55;102168.50;;;4.25;86.15
3122;BME280;1571;52.524;14.104;2024-03-07T09:25:24;102174.81;;;4.12;86.10
3122;BME280;1571;52.524;14.104;2024-03-07T09:27:53;102176.06;;;4.50;85.80
3122;BME280;1571;52.524;14.104;2024-03-07T09:30:23;102163.81;;;4.46;84.21
3122;BME280;1571;52.524;14.104;2024-03-07T09:32:54;102161.63;;;4.15;83.21
3122;BME280;1571;52.524;14.104;2024-03-07T09:35:23;102151.50;;;4.51;83.68
3122;BME280;1571;52.524;14.104;2024-03-07T09:37:52;102161.91;;;4.57;83.20
3122;BME280;1571;52.524;14.104;2024-03-07T09:40:22;102156.41;;;4.74;82.57
3122;BME280;1571;52.524;14.104;2024-03-07T09:42:55;102159.66;;;4.90;81.89
3122;BME280;1571;52.524;14.104;2024-03-07T09:45:30;102155.03;;;5.04;80.86
3122;BME280;1571;52.524;14.104;2024-03-07T09:48:00;102149.59;;;5.13;80.43
3122;BME280;1571;52.524;14.104;2024-03-07T09:50:30;102146.84;;;5.22;79.61
3122;BME280;1571;52.524;14.104;2024-03-07T09:52:59;102142.44;;;5.25;78.02
3122;BME280;1571;52.524;14.104;2024-03-07T09:55:30;102148.22;;;5.42;77.22
3122;BME280;1571;52.524;14.104;2024-03-07T09:58:00;102133.44;;;5.36;75.70
3122;BME280;1571;52.524;14.104;2024-03-07T10:00:29;102134.94;;;5.48;75.31
3122;BME280;1571;52.524;14.104;2024-03-07T10:02:59;102151.81;;;5.38;75.81
3122;BME280;1571;52.524;14.104;2024-03-07T10:05:30;102149.47;;;5.69;76.41
3122;BME280;1571;52.524;14.104;2024-03-07T10:08:00;102151.19;;;5.25;74.64
3122;BME280;1571;52.524;14.104;2024-03-07T10:10:30;102135.88;;;5.46;74.72
3122;BME280;1571;52.524;14.104;2024-03-07T10:12:59;102148.97;;;5.49;73.68
3122;BME280;1571;52.524;14.104;2024-03-07T10:15:28;102143.75;;;5.92;71.79
3122;BME280;1571;52.524;14.104;2024-03-07T10:17:57;102132.78;;;5.70;69.90
3122;BME280;1571;52.524;14.104;2024-03-07T10:20:26;102132.72;;;5.73;69.26
3122;BME280;1571;52.524;14.104;2024-03-07T10:22:55;102128.47;;;5.66;68.34
3122;BME280;1571;52.524;14.104;2024-03-07T10:25:24;102133.34;;;5.86;67.97
3122;BME280;1571;52.524;14.104;2024-03-07T10:27:56;102124.50;;;5.87;67.86
3122;BME280;1571;52.524;14.104;2024-03-07T10:30:26;102132.88;;;5.66;67.26
3122;BME280;1571;52.524;14.104;2024-03-07T10:32:57;102129.13;;;5.77;66.98
3122;BME280;1571;52.524;14.104;2024-03-07T10:35:29;102125.09;;;5.58;65.57
3122;BME280;1571;52.524;14.104;2024-03-07T10:37:59;102122.63;;;5.95;66.08
3122;BME280;1571;52.524;14.104;2024-03-07T10:40:29;102134.84;;;5.99;66.11
3122;BME280;1571;52.524;14.104;2024-03-07T10:42:59;102133.53;;;6.19;65.69
3122;BME280;1571;52.524;14.104;2024-03-07T10:45:33;102127.06;;;5.92;64.83
3122;BME280;1571;52.524;14.104;2024-03-07T10:48:03;102120.72;;;6.03;64.70
3122;BME280;1571;52.524;14.104;2024-03-07T10:50:43;102116.28;;;6.44;64.45
3122;BME280;1571;52.524;14.104;2024-03-07T10:53:19;102128.78;;;5.94;62.99
3122;BME280;1571;52.524;14.104;2024-03-07T10:56:04;102108.91;;;5.78;62.46
3122;BME280;1571;52.524;14.104;2024-03-07T10:58:49;102117.41;;;5.92;62.14
3122;BME280;1571;52.524;14.104;2024-03-07T11:01:26;102108.97;;;5.75;62.02
3122;BME280;1571;52.524;14.104;2024-03-07T11:03:59;102121.38;;;6.13;62.09
3122;BME280;1571;52.524;14.104;2024-03-07T11:06:28;102121.69;;;5.98;61.57
3122;BME280;1571;52.524;14.104;2024-03-07T11:08:57;102106.25;;;5.79;61.19
3122;BME280;1571;52.524;14.104;2024-03-07T11:11:27;102117.72;;;5.77;61.19
3122;BME280;1571;52.524;14.104;2024-03-07T11:13:57;102127.09;;;6.32;62.35
3122;BME280;1571;52.524;14.104;2024-03-07T11:16:26;102129.09;;;6.21;62.18
3122;BME280;1571;52.524;14.104;2024-03-07T11:19:19;102109.16;;;6.08;61.17
3122;BME280;1571;52.524;14.104;2024-03-07T11:21:48;102116.63;;;6.29;60.99
3122;BME280;1571;52.524;14.104;2024-03-07T11:24:22;102113.47;;;6.12;61.21
3122;BME280;1571;52.524;14.104;2024-03-07T11:26:52;102119.56;;;6.15;61.54
3122;BME280;1571;52.524;14.104;2024-03-07T11:29:48;102121.19;;;6.60;61.66
3122;BME280;1571;52.524;14.104;2024-03-07T11:32:20;102121.34;;;6.52;61.80
3122;BME280;1571;52.524;14.104;2024-03-07T11:34:53;102126.81;;;6.44;61.58
3122;BME280;1571;52.524;14.104;2024-03-07T11:37:37;102114.44;;;6.08;60.54
3122;BME280;1571;52.524;14.104;2024-03-07T11:40:10;102123.56;;;6.33;61.09
3122;BME280;1571;52.524;14.104;2024-03-07T11:42:48;102111.13;;;6.38;61.31
3122;BME280;1571;52.524;14.104;2024-03-07T11:45:20;102095.88;;;6.14;60.32
3122;BME280;1571;52.524;14.104;2024-03-07T11:47:54;102093.97;;;6.19;60.00
3122;BME280;1571;52.524;14.104;2024-03-07T11:50:27;102104.06;;;6.39;60.32
3122;BME280;1571;52.524;14.104;2024-03-07T11:52:56;102102.25;;;6.42;60.23
3122;BME280;1571;52.524;14.104;2024-03-07T11:55:24;102095.09;;;6.46;60.18
3122;BME280;1571;52.524;14.104;2024-03-07T11:57:55;102089.59;;;6.57;59.85
3122;BME280;1571;52.524;14.104;2024-03-07T12:00:25;102083.44;;;6.19;59.68
3122;BME280;1571;52.524;14.104;2024-03-07T12:03:01;102089.00;;;6.80;59.52
3122;BME280;1571;52.524;14.104;2024-03-07T12:05:33;102081.19;;;6.39;59.04
3122;BME280;1571;52.524;14.104;2024-03-07T12:08:01;102076.69;;;6.80;59.86
3122;BME280;1571;52.524;14.104;2024-03-07T12:10:32;102082.69;;;6.87;60.00
3122;BME280;1571;52.524;14.104;2024-03-07T12:13:01;102062.72;;;6.75;59.17
3122;BME280;1571;52.524;14.104;2024-03-07T12:15:32;102080.19;;;6.45;59.26
3122;BME280;1571;52.524;14.104;2024-03-07T12:18:02;102069.50;;;6.51;60.34
3122;BME280;1571;52.524;14.104;2024-03-07T12:20:36;102067.63;;;6.91;60.30
3122;BME280;1571;52.524;14.104;2024-03-07T12:23:05;102062.81;;;6.72;59.74
3122;BME280;1571;52.524;14.104;2024-03-07T12:25:35;102055.59;;;6.80;58.12
3122;BME280;1571;52.524;14.104;2024-03-07T12:28:06;102064.63;;;6.34;58.48
3122;BME280;1571;52.524;14.104;2024-03-07T12:30:49;102055.13;;;6.63;58.36
3122;BME280;1571;52.524;14.104;2024-03-07T12:33:18;102058.84;;;6.56;58.88
3122;BME280;1571;52.524;14.104;2024-03-07T12:35:48;102059.78;;;6.53;59.49
3122;BME280;1571;52.524;14.104;2024-03-07T12:38:19;102062.00;;;6.70;58.94
3122;BME280;1571;52.524;14.104;2024-03-07T12:41:02;102062.34;;;6.56;58.83
3122;BME280;1571;52.524;14.104;2024-03-07T12:43:33;102045.88;;;6.81;58.55
3122;BME280;1571;52.524;14.104;2024-03-07T12:46:05;102058.47;;;7.04;58.43
3122;BME280;1571;52.524;14.104;2024-03-07T12:48:33;102047.84;;;7.07;58.58
3122;BME280;1571;52.524;14.104;2024-03-07T12:51:06;102049.97;;;7.25;58.72
3122;BME280;1571;52.524;14.104;2024-03-07T12:53:34;102045.75;;;6.87;58.96
3122;BME280;1571;52.524;14.104;2024-03-07T12:56:03;102041.06;;;6.97;58.64
3122;BME280;1571;52.524;14.104;2024-03-07T12:58:31;102024.84;;;7.11;58.65
3122;BME280;1571;52.524;14.104;2024-03-07T13:01:00;102046.50;;;6.91;57.91
3122;BME280;1571;52.524;14.104;2024-03-07T13:03:30;102031.31;;;6.66;57.60
3122;BME280;1571;52.524;14.104;2024-03-07T13:05:59;102034.69;;;7.05;58.64
3122;BME280;1571;52.524;14.104;2024-03-07T13:08:29;102024.38;;;6.96;56.20
3122;BME280;1571;52.524;14.104;2024-03-07T13:10:58;102030.31;;;6.70;55.71
3122;BME280;1571;52.524;14.104;2024-03-07T13:13:28;102019.47;;;6.82;56.25
3122;BME280;1571;52.524;14.104;2024-03-07T13:15:57;102028.28;;;7.14;57.96
3122;BME280;1571;52.524;14.104;2024-03-07T13:18:26;102002.44;;;6.93;56.03